To NAV CANADA Home Page Login to a new session Search on AWWS site Disclaimer Vers la page française équivalente Tips FAQ What's new on the site To the Forecasts and Observations / NOTAM section To "File a Flight Plan" website Publications and other links Update of the User's profile FIC Telephone Numbers My Weather Data Folder Route Weather Data Regional Weather Data Local Weather Data To the Forecasts and Observations / NOTAM section
Request Generated 04/25/2019 at 09:17:14 UTC . Weather information available at that time is displayed.

METAR/TAF

WINNIPEG/JAMES ARMSTRONG RICHARDSON INTL/MB    

METAR CYWG 250900Z 29004KT 15SM SKC 01/M03 A2978 RMK SLP092=
METAR CYWG 250800Z 33002KT 15SM SKC 04/M02 A2977 RMK SLP089=
METAR CYWG 250700Z 36003KT 15SM FEW099 04/M02 A2976 RMK AC2 SLP085=

TAF CYWG 250538Z 2506/2606 30006KT P6SM SKC
BECMG 2512/2514 30012KT
FM251500 30015G25KT P6SM SCT080
BECMG 2516/2518 30022G32KT
FM252000 30025G35KT P6SM VCSH BKN060
BECMG 2600/2602 34010KT
RMK NXT FCST BY 251200Z=
Your time UTC time
Weather data provided by Environment Canada and NAV CANADA